Le Mars, IA (51031)

4:33 AM CDT on August 28, 2015 (GMT -0500)
NW Le Mars | | Change Station
CLOSE
Current Station
Personal Weather Station
Location: Le Mars, IA
Elevation: 1280 ft
Nearby Weather Stations

Elev 1280 ft 42.82 °N, 96.19 °W | Updated 4 seconds ago

Overcast
Overcast
63.7 °F
Feels Like 63.7 °F
N
10.4
Wind Variable Wind from ESE
Gusts 10.4 mph

Today
High -- | Low -- °F
--% Chance of Precip.
Yesterday
High -- | Low -- °F
Precip. -- in
6:44 AM 8:06 PM
Waxing Gibbous, 97% visible
Pressure 29.89 in
Visibility 10.0 miles
Clouds Few 3600 ft
Scattered Clouds 5000 ft
Mostly Cloudy 6500 ft
Dew Point 64 °F
Humidity 100%
Rainfall 0.40 in
Snow Depth Not available.
UV 0 out of 12
Pollen 7.70 out of 12
Air Quality Not available.
Flu Activity Not available.
METAR KLRJ 280915Z AUTO 12009G14KT 080V150 10SM FEW036 SCT050 BKN065 18/18 A2989 RMK AO2
Pressure 29.89 in
Visibility 10.0 miles
Clouds Few 3600 ft
Scattered Clouds 5000 ft
Mostly Cloudy 6500 ft
Dew Point 64 °F
Humidity 100%
Rainfall 0.40 in
Snow Depth Not available.
UV 0 out of 12
Pollen 7.70 out of 12
Air Quality Not available.
Flu Activity Not available.
METAR KLRJ 280915Z AUTO 12009G14KT 080V150 10SM FEW036 SCT050 BKN065 18/18 A2989 RMK AO2

10-Day Weather Forecast

×

Almanac

Astronomy

Aug. 28, 2015 Rise Set
Actual Time
Civil Twilight
Nautical Twilight
Astronomical Twilight
Moon
Length of Visible Light
Length of Day
Tomorrow will be .
, % of the Moon is Illuminated

Today's Extremes

State Highs State Lows

Community

WunderPhotos

Upload Photos

1,850,352 photos uploaded!

WunderBlogs® & News

Nearby

Air Quality

  Air Quality AQ Index Pollutant
Not available.

Snow Depth

Station Depth Elevation

Earthquake Activity

City Distance Mag. Time & Date
Minimum magnitude displayed is 2.5.

Coastal Water Temperatures

Place Temperature

Stations

Nearby Weather Stations

Station Location Temp. Windchill Dew Point Humidity Wind Precip. Elev Updated Type